Data for 07/08/2005

Time Sea-Level Adjusted Pressure Absolute Pressure Temperature Relative Humidity Dew Point   
(mb) (inHg) (mb) (inHg) (C) (F) (%) (C) (F)
00:05 1016 30 845 24.95 20.4 68.6 52 10.2 50.3
00:10 1016 30 845 24.95 20.3 68.6 52 10.3 50.5
00:15 1016 30 845 24.95 20.3 68.5 53 10.4 50.6
00:20 1016 30 845 24.95 20.2 68.3 52 10.1 50.3
00:25 1016 30 845 24.95 19.9 67.9 54 10.4 50.7
00:30 1016 30 845 24.95 19.6 67.3 58 11.3 52.4
00:35 1016 30 845 24.95 19.3 66.7 57 10.6 51.1
00:40 1016 30 846 24.98 18.9 66.1 58 10.5 50.9
00:45 1016 30 846 24.98 18.8 65.8 58 10.5 50.9
00:50 1016 30 846 24.98 18.8 65.9 58 10.5 50.9
00:55 1016 30 846 24.98 18.8 65.9 58 10.5 50.9
01:00 1016 30 846 24.98 18.7 65.7 59 10.6 51
01:05 1016 30 846 24.98 18.8 65.8 58 10.4 50.7
01:10 1016 30 846 24.98 19 66.2 57 10.3 50.5
01:15 1017 30.03 846 24.98 19.2 66.6 56 10.4 50.6
01:20 1017 30.03 846 24.98 19.1 66.4 57 10.6 51.1
01:25 1017 30.03 846 24.98 18.9 66 58 10.6 51
01:30 1017 30.03 846 24.98 18.3 64.9 60 10.5 51
01:35 1017 30.03 846 24.98 18.1 64.5 61 10.5 50.8
01:40 1017 30.03 846 24.98 17.9 64.2 61 10.3 50.5
01:45 1017 30.03 846 24.98 17.8 64.1 62 10.5 50.9
01:50 1017 30.03 846 24.98 17.5 63.5 63 10.5 50.8
01:55 1017 30.03 846 24.98 17.4 63.3 63 10.3 50.6
02:00 1017 30.03 846 24.98 17.3 63.2 64 10.6 51
02:05 1017 30.03 846 24.98 17.3 63.1 64 10.4 50.7
02:10 1017 30.03 846 24.98 17.4 63.2 63 10.3 50.6
02:15 1017 30.03 846 24.98 17.4 63.2 62 10.1 50.2
02:20 1017 30.03 846 24.98 17.6 63.6 64 10.7 51.2
02:25 1017 30.03 846 24.98 17.8 64 61 10.2 50.3
02:30 1017 30.03 846 24.98 17.8 64 60 10.1 50.1
02:35 1017 30.03 846 24.98 17.5 63.5 62 10.2 50.3
02:40 1017 30.03 846 24.98 17.3 63.2 61 9.8 49.6
02:45 1017 30.03 846 24.98 17.5 63.5 62 10.2 50.3
02:50 1017 30.03 846 24.98 17 62.6 63 10 50
02:55 1017 30.03 846 24.98 16.8 62.3 63 9.8 49.7
03:00 1017 30.03 846 24.98 16.5 61.7 66 10.1 50.2
03:05 1017 30.03 846 24.98 16.3 61.4 65 9.9 49.8
03:10 1017 30.03 846 24.98 16 60.7 67 10 50
03:15 1017 30.03 846 24.98 15.6 60 69 9.9 49.9
03:20 1017 30.03 846 24.98 15.3 59.6 70 10 50
03:25 1017 30.03 846 24.98 15.2 59.3 71 9.9 49.9
03:30 1017 30.03 846 24.98 14.7 58.5 73 9.9 49.9
03:35 1017 30.03 846 24.98 14.5 58.1 72 9.6 49.2
03:40 1017 30.03 846 24.98 15.5 59.9 64 8.8 47.8
03:45 1017 30.03 846 24.98 16.2 61.1 63 9.3 48.7
03:50 1017 30.03 846 24.98 16.4 61.5 63 9.4 49
03:55 1017 30.03 846 24.98 16.2 61.1 64 9.3 48.8
04:00 1017 30.03 846 24.98 16.1 61 65 9.5 49.1
04:05 1017 30.03 846 24.98 15.8 60.4 66 9.5 49
04:10 1017 30.03 846 24.98 15.3 59.6 67 9.4 48.9
04:15 1017 30.03 846 24.98 15.3 59.5 71 10.1 50.2
04:20 1017 30.03 846 24.98 15.1 59.2 68 9.3 48.7
04:25 1017 30.03 846 24.98 15 58.9 67 9 48.2
04:30 1017 30.03 846 24.98 14.9 58.9 67 9 48.2
04:35 1017 30.03 846 24.98 15 59 73 10.1 50.2
04:40 1017 30.03 846 24.98 15.3 59.5 65 8.8 47.8
04:45 1017 30.03 846 24.98 15 59 67 9 48.2
04:50 1017 30.03 846 24.98 14.6 58.2 69 9 48.1
04:55 1017 30.03 846 24.98 14.1 57.3 71 9 48.2
05:00 1017 30.03 846 24.98 14.1 57.4 69 8.5 47.3
05:05 1017 30.03 846 24.98 14.9 58.7 66 8.5 47.4
05:10 1017 30.03 847 25.01 14.8 58.6 66 8.6 47.5
05:15 1017 30.03 847 25.01 14.7 58.4 67 8.7 47.7
05:20 1017 30.03 847 25.01 14.7 58.5 71 9.6 49.3
05:25 1017 30.03 847 25.01 14.5 58 70 9.1 48.4
05:30 1017 30.03 847 25.01 14.3 57.7 70 8.9 47.9
05:35 1017 30.03 847 25.01 14.6 58.2 68 8.7 47.7
05:40 1017 30.03 847 25.01 14.3 57.8 69 8.9 48
05:45 1018 30.06 847 25.01 14.2 57.6 69 8.8 47.8
05:50 1018 30.06 847 25.01 13.8 56.9 72 8.8 47.9
05:55 1018 30.06 847 25.01 14.3 57.7 67 8.3 46.9
06:00 1018 30.06 847 25.01 14.4 57.9 70 9 48.2
06:05 1018 30.06 847 25.01 14.1 57.4 73 9.3 48.8
06:10 1018 30.06 847 25.01 14.7 58.4 68 8.8 47.8
06:15 1018 30.06 847 25.01 14.8 58.7 67 8.8 47.8
06:20 1018 30.06 847 25.01 15 58.9 65 8.6 47.4
06:25 1018 30.06 847 25.01 15 59 66 8.9 48
06:30 1018 30.06 847 25.01 14.6 58.2 69 9 48.2
06:35 1018 30.06 847 25.01 14.4 57.8 68 8.7 47.6
06:40 1018 30.06 847 25.01 14.9 58.8 67 8.9 48
06:45 1018 30.06 847 25.01 15.1 59.2 66 8.9 48.1
06:50 1018 30.06 847 25.01 15.1 59.2 66 8.9 47.9
06:55 1018 30.06 847 25.01 15.3 59.6 67 9.2 48.6
07:00 1018 30.06 847 25.01 15.3 59.5 67 9.2 48.5
07:05 1018 30.06 847 25.01 15.6 60.1 66 9.3 48.7
07:10 1018 30.06 847 25.01 15.8 60.5 65 9.4 48.9
07:15 1018 30.06 847 25.01 16.1 60.9 65 9.6 49.2
07:20 1018 30.06 847 25.01 16.4 61.5 64 9.7 49.4
07:25 1018 30.06 847 25.01 17.1 62.8 61 9.7 49.4
07:30 1018 30.06 847 25.01 17.6 63.6 60 9.9 49.8
07:35 1018 30.06 847 25.01 17.8 64.1 59 9.7 49.5
07:40 1018 30.06 847 25.01 18.1 64.6 60 10.3 50.5
07:45 1018 30.06 847 25.01 18.2 64.7 61 10.7 51.2
07:50 1018 30.06 847 25.01 18.5 65.3 59 10.4 50.7
07:55 1018 30.06 847 25.01 19.1 66.3 57 10.5 50.9
08:00 1018 30.06 847 25.01 19.5 67.1 56 10.5 50.9
08:05 1018 30.06 847 25.01 19.6 67.4 55 10.5 51
08:10 1018 30.06 847 25.01 20 67.9 54 10.6 51
08:15 1018 30.06 847 25.01 20.2 68.3 54 10.7 51.3
08:20 1018 30.06 847 25.01 20.3 68.5 54 10.7 51.3
08:25 1018 30.06 847 25.01 20.5 69 53 10.6 51.1
08:30 1018 30.06 847 25.01 21.2 70.2 50 10.6 51
08:35 1018 30.06 847 25.01 21.5 70.6 49 10.5 50.9
08:40 1018 30.06 847 25.01 22.2 72 45 10 50
08:45 1018 30.06 847 25.01 22.9 73.3 45 10.7 51.2
08:50 1018 30.06 847 25.01 23.2 73.8 45 10.9 51.7
08:55 1018 30.06 847 25.01 23.9 75 43 10.6 51
09:00 1018 30.06 847 25.01 23.9 75.1 43 10.7 51.3
09:05 1018 30.06 847 25.01 24.3 75.7 39 9.7 49.4
09:10 1018 30.06 847 25.01 24.2 75.6 38 9.1 48.5
09:15 1018 30.06 847 25.01 23.8 74.8 40 9.4 48.9
09:20 1018 30.06 847 25.01 23.9 75 40 9.6 49.3
09:25 1018 30.06 847 25.01 24.3 75.8 38 9.2 48.6
09:30 1018 30.06 847 25.01 25.2 77.4 38 10 50.1
09:35 1018 30.06 847 25.01 25.3 77.6 38 10.2 50.3
09:40 1018 30.06 847 25.01 25.3 77.6 37 9.9 49.9
09:45 1018 30.06 847 25.01 25.8 78.4 35 9.3 48.8
09:50 1018 30.06 847 25.01 26.2 79.1 35 9.9 49.8
09:55 1018 30.06 847 25.01 26 78.8 36 10.1 50.2
10:00 1018 30.06 847 25.01 26.2 79.1 35 9.9 49.8
10:05 1018 30.06 847 25.01 26 78.8 37 10.5 50.9
10:10 1018 30.06 847 25.01 26.1 78.9 36 10.1 50.2
10:15 1017 30.03 847 25.01 25.7 78.2 38 10.5 50.8
10:20 1018 30.06 847 25.01 25.9 78.6 38 10.6 51.1
10:25 1017 30.03 847 25.01 25.7 78.2 37 10.2 50.4
10:30 1017 30.03 847 25.01 26 78.8 40 11.5 52.7
10:35 1017 30.03 847 25.01 26.1 78.9 38 10.9 51.5
10:40 1017 30.03 846 24.98 27.4 81.3 35 10.7 51.3
10:45 1017 30.03 846 24.98 27.6 81.6 35 10.9 51.7
10:50 1017 30.03 846 24.98 27.4 81.3 36 11.3 52.3
10:55 1017 30.03 846 24.98 26.6 79.9 37 10.9 51.6
11:00 1017 30.03 846 24.98 27.2 81 34 10.3 50.5
11:05 1017 30.03 846 24.98 27.6 81.6 33 10.1 50.2
11:10 1017 30.03 846 24.98 28.2 82.8 33 10.6 51
11:15 1017 30.03 846 24.98 28 82.5 32 10 50
11:20 1017 30.03 846 24.98 27.8 82 31 9.5 49.1
11:25 1017 30.03 846 24.98 28 82.5 31 9.5 49.1
11:30 1017 30.03 846 24.98 28.2 82.8 31 9.6 49.3
11:35 1017 30.03 846 24.98 28.5 83.2 31 9.8 49.6
11:40 1017 30.03 846 24.98 28.7 83.6 32 10.7 51.2
11:45 1017 30.03 846 24.98 29.4 84.9 27 8.7 47.6
11:50 1017 30.03 846 24.98 29 84.2 28 8.9 48.1
11:55 1017 30.03 846 24.98 29 84.2 27 8.3 46.9
12:00 1016 30 846 24.98 28.8 83.8 27 8.4 47.1
12:05 1016 30 846 24.98 29.7 85.4 27 8.8 47.8
12:10 1016 30 846 24.98 30 85.9 24 7.3 45.2
12:15 1016 30 846 24.98 30.4 86.7 21 6.2 43.2
12:20 1016 30 845 24.95 30.2 86.4 22 6.4 43.6
12:25 1016 30 845 24.95 30.3 86.5 22 6.8 44.2
12:30 1016 30 845 24.95 31 87.7 22 7.2 45
12:35 1016 30 845 24.95 30.8 87.5 22 6.8 44.2
12:40 1016 30 845 24.95 31.1 88 23 7.7 45.8
12:45 1016 30 845 24.95 30.5 86.9 21 6.3 43.3
12:50 1016 30 845 24.95 31 87.8 21 6.3 43.3
12:55 1016 30 845 24.95 30.7 87.3 22 6.9 44.4
13:00 1016 30 845 24.95 31.5 88.8 20 6.6 43.8
13:05 1016 30 845 24.95 31.3 88.4 21 6.4 43.6
13:10 1016 30 845 24.95 31.3 88.3 21 6.6 43.8
13:15 1016 30 845 24.95 31.8 89.2 19 5.9 42.6
13:20 1015 29.97 845 24.95 31.6 88.8 20 6.3 43.3
13:25 1015 29.97 845 24.95 32.2 90 19 5.9 42.6
13:30 1015 29.97 844 24.92 32.1 89.8 20 6.7 44.1
13:35 1015 29.97 844 24.92 31.7 89 21 7.1 44.9
13:40 1015 29.97 844 24.92 32.1 89.8 21 7.2 44.9
13:45 1015 29.97 844 24.92 31.6 88.8 21 7.1 44.8
13:50 1015 29.97 844 24.92 32.5 90.5 20 7.3 45.1
13:55 1015 29.97 844 24.92 32.9 91.3 20 7.6 45.7
14:00 1015 29.97 844 24.92 33.4 92.1 19 7.2 45
14:05 1015 29.97 844 24.92 34.1 93.4 19 7.9 46.2
14:10 1015 29.97 844 24.92 34.4 93.9 17 6.6 43.9
14:15 1015 29.97 844 24.92 34.4 94 18 6.9 44.4
14:20 1015 29.97 844 24.92 34.6 94.3 18 6.9 44.5
14:25 1015 29.97 844 24.92 34.5 94 18 7.5 45.5
14:30 1014 29.94 844 24.92 34.4 94 16 5.6 42
14:35 1014 29.94 844 24.92 35.2 95.4 17 7.2 44.9
14:40 1014 29.94 843 24.89 34.8 94.7 18 7.3 45.2
14:45 1014 29.94 844 24.92 35.4 95.6 16 6.2 43.2
14:50 1014 29.94 843 24.89 35.2 95.3 16 5.7 42.3
14:55 1014 29.94 843 24.89 34.4 93.8 17 5.8 42.5
15:00 1014 29.94 843 24.89 34.5 94.1 16 5.5 41.9
15:05 1014 29.94 843 24.89 35 95.1 16 6 42.8
15:10 1014 29.94 843 24.89 34.4 93.8 17 6.6 43.8
15:15 1014 29.94 843 24.89 33.9 93 19 7.4 45.2
15:20 1014 29.94 843 24.89 33.4 92.2 17 5.7 42.2
15:25 1014 29.94 843 24.89 33.3 92 18 6.6 43.9
15:30 1014 29.94 843 24.89 33 91.4 19 6.6 43.9
15:35 1014 29.94 843 24.89 33.7 92.6 19 7.5 45.5
15:40 1014 29.94 843 24.89 33.7 92.6 17 5.8 42.4
15:45 1014 29.94 843 24.89 33.5 92.3 14 3.3 37.9
15:50 1014 29.94 843 24.89 34.1 93.4 14 2.8 37
15:55 1013 29.91 843 24.89 34.2 93.5 15 3.8 38.9
16:00 1013 29.91 843 24.89 34.2 93.5 16 5.1 41.2
16:05 1013 29.91 843 24.89 33.9 93 14 2.7 36.8
16:10 1013 29.91 843 24.89 33.9 93 15 3.9 39.1
16:15 1013 29.91 843 24.89 34.3 93.8 14 3.4 38.2
16:20 1013 29.91 843 24.89 34.1 93.3 14 3.2 37.7
16:25 1013 29.91 842 24.86 33.9 93 14 3.4 38.1
16:30 1013 29.91 842 24.86 34.1 93.3 13 2.1 35.7
16:35 1013 29.91 843 24.89 34.1 93.3 14 2.9 37.3
16:40 1013 29.91 842 24.86 33.8 92.9 14 3.5 38.2
16:45 1013 29.91 843 24.89 33.9 93 15 4.3 39.8
16:50 1013 29.91 843 24.89 34.1 93.3 15 3.8 38.8
16:55 1013 29.91 843 24.89 33.6 92.5 20 7.9 46.2
17:00 1013 29.91 843 24.89 33 91.3 21 7.8 46.1
17:05 1013 29.91 843 24.89 32.1 89.9 22 8 46.5
17:10 1013 29.91 843 24.89 31.9 89.4 21 7.3 45.1
17:15 1013 29.91 843 24.89 32.3 90.2 21 7.6 45.6
17:20 1013 29.91 843 24.89 32.7 90.8 20 7.5 45.6
17:25 1013 29.91 843 24.89 32.8 91.1 20 7.3 45.2
17:30 1013 29.91 842 24.86 32.1 89.9 20 7.1 44.7
17:35 1013 29.91 842 24.86 31.9 89.5 21 7.1 44.7
17:40 1013 29.91 842 24.86 31.9 89.4 21 7.3 45.2
17:45 1013 29.91 842 24.86 31.5 88.7 22 7.7 45.8
17:50 1013 29.91 842 24.86 31.3 88.3 23 7.7 45.9
17:55 1013 29.91 842 24.86 31.4 88.5 23 7.9 46.3
18:00 1013 29.91 842 24.86 31.9 89.4 22 7.6 45.7
18:05 1013 29.91 842 24.86 32.2 89.9 20 6.7 44.1
18:10 1013 29.91 842 24.86 31.8 89.2 22 7.7 45.8
18:15 1013 29.91 842 24.86 31.6 88.9 22 7.7 45.9
18:20 1013 29.91 842 24.86 30.5 86.9 19 4.4 39.9
18:25 1013 29.91 843 24.89 30.6 87.1 14 0.6 33
18:30 1013 29.91 842 24.86 31.6 88.9 15 2.1 35.8
18:35 1013 29.91 842 24.86 31.4 88.5 15 2.1 35.7
18:40 1013 29.91 842 24.86 31.2 88.1 15 2.3 36.1
18:45 1013 29.91 842 24.86 31.3 88.3 15 2.4 36.3
18:50 1013 29.91 842 24.86 31.1 87.9 16 3.1 37.6
18:55 1013 29.91 842 24.86 30.7 87.3 19 4.5 40.1
19:00 1013 29.91 842 24.86 30.3 86.6 21 6.1 43
19:05 1013 29.91 843 24.89 29.7 85.4 24 7.4 45.3
19:10 1013 29.91 843 24.89 28.4 83 26 7.1 44.8
19:15 1013 29.91 842 24.86 27.9 82.3 22 4.8 40.6
19:20 1013 29.91 842 24.86 28 82.4 23 5.4 41.6
19:25 1013 29.91 842 24.86 27.7 81.8 21 4 39.2
19:30 1013 29.91 842 24.86 28.5 83.2 19 2.6 36.7
19:35 1013 29.91 842 24.86 28.8 83.8 19 3.4 38.1
19:40 1013 29.91 842 24.86 28 82.4 25 6.5 43.7
19:45 1013 29.91 842 24.86 27 80.6 27 6.6 43.8
19:50 1013 29.91 842 24.86 26.5 79.7 29 7.2 44.9
19:55 1014 29.94 843 24.89 26.3 79.3 28 6.4 43.5
20:00 1014 29.94 843 24.89 26.4 79.5 28 6.7 44.1
20:05 1014 29.94 843 24.89 26.3 79.4 28 6.8 44.3
20:10 1014 29.94 843 24.89 26.1 79 29 7.1 44.8
20:15 1014 29.94 843 24.89 25.9 78.5 31 7.5 45.5
20:20 1014 29.94 843 24.89 25.6 78.1 29 6.6 43.9
20:25 1014 29.94 843 24.89 26 78.8 29 6.7 44.1
20:30 1014 29.94 843 24.89 26 78.9 29 6.8 44.3
20:35 1014 29.94 843 24.89 26 78.7 29 6.9 44.5
20:40 1014 29.94 843 24.89 25.7 78.3 30 7 44.5
20:45 1014 29.94 843 24.89 25.6 78 30 7.1 44.7
20:50 1014 29.94 843 24.89 25.4 77.7 30 7 44.6
20:55 1014 29.94 843 24.89 25.3 77.5 31 7.2 45
21:00 1014 29.94 843 24.89 25 76.9 33 7.9 46.2
21:05 1013 29.91 843 24.89 24.4 76 34 7.6 45.7
21:10 1013 29.91 843 24.89 24.1 75.4 34 7.6 45.7
21:15 1013 29.91 843 24.89 24 75.2 34 7.4 45.3
21:20 1013 29.91 843 24.89 24 75.3 33 7.1 44.7
21:25 1013 29.91 843 24.89 24 75.2 34 7.6 45.7
21:30 1013 29.91 842 24.86 23.6 74.4 35 7.6 45.7
21:35 1013 29.91 843 24.89 23.4 74 36 7.5 45.5
21:40 1013 29.91 843 24.89 23.3 73.9 36 7.5 45.5
21:45 1014 29.94 843 24.89 23.2 73.7 36 7.4 45.3
21:50 1014 29.94 843 24.89 23.3 73.9 35 7.3 45.1
21:55 1014 29.94 843 24.89 23.2 73.7 38 8.2 46.8
22:00 1014 29.94 843 24.89 23.1 73.6 37 7.9 46.3
22:05 1014 29.94 843 24.89 22.9 73.2 38 8 46.4
22:10 1013 29.91 843 24.89 22.5 72.4 40 8.3 47
22:15 1013 29.91 843 24.89 22.1 71.8 41 8.5 47.3
22:20 1013 29.91 843 24.89 21.9 71.4 45 9.6 49.4
22:25 1013 29.91 843 24.89 21.6 70.8 43 8.7 47.7
22:30 1013 29.91 843 24.89 21.5 70.6 41 7.9 46.1
22:35 1013 29.91 843 24.89 21.5 70.7 42 8.1 46.5
22:40 1013 29.91 843 24.89 21.5 70.6 41 7.7 45.9
22:45 1013 29.91 842 24.86 21.9 71.4 39 7.5 45.5
22:50 1013 29.91 842 24.86 21.9 71.3 40 7.8 46.1
22:55 1013 29.91 842 24.86 21.7 71 40 7.5 45.6
23:00 1013 29.91 842 24.86 21.9 71.4 38 7.1 44.8
23:05 1013 29.91 842 24.86 22.2 72 36 6.7 44.1
23:10 1013 29.91 842 24.86 22.2 72 38 7.3 45.2
23:15 1013 29.91 842 24.86 22.3 72.1 36 6.8 44.3
23:20 1013 29.91 842 24.86 22 71.6 39 7.4 45.4
23:25 1013 29.91 842 24.86 21.6 70.9 39 7.4 45.3
23:30 1013 29.91 842 24.86 21.3 70.3 41 7.6 45.6
23:35 1013 29.91 842 24.86 21.1 70.1 39 6.8 44.3
23:40 1013 29.91 842 24.86 21.5 70.7 38 6.7 44.1
23:45 1013 29.91 842 24.86 21.8 71.2 38 6.8 44.3
23:50 1013 29.91 842 24.86 21.6 70.8 38 6.7 44.1
23:55 1013 29.91 842 24.86 21.5 70.7 38 6.8 44.2
24:00 1013 29.91 842 24.86 22 71.7 34 5.8 42.4